메인 페이지
METAR-TAF:

METAR-TAF

공항 :

우아리 부메디엔 공항

알제, 알제리

위도: 36-43N, 경도: 003-15E, 고도: 25m

현재 날씨관측

예보는 33분 전, 22:00시(UTC)에 발표되었습니다.
3kt
온도 18°C
습도 88%
기압 1020 hPa
시정 10km 이상
1500m 미만 상공 구름 및 적란운 없음

METAR: DAAG 182200Z 08003KT CAVOK 18/16 Q1020

시각: 23:33 (22:33 UTC)

예보

예보는 5 시간 33분 전, 17:00시(UTC)에 발표되었습니다.
예보 대상 시간: 18일 18시부터 19일 18시까지 (UTC)
북동16kt
시정 10km 이상
고도 2600ft 상공 구름 조금
고도 20000ft 상공 구름 보통
전환 중
18일 21시부터 18일 24시까지 (UTC)
여러 방향의 바람 2kt
확률 30% :
일시적
19일 06시부터 19일 14시까지 (UTC)
고도 2300ft 상공 구름 조금, 타워링 적운.
전환 중
19일 08시부터 19일 11시까지 (UTC)
북북동12kt

TAF: DAAG 181700Z 1818/1918 04016KT 9999 FEW026 SCT200 BECMG 1821/1824 VRB02KT PROB30 TEMPO 1906/1914 FEW023TCU BECMG 1908/1911 02012KT

4,000개 이상의 공항 관측 자료 및 예보 (METAR 및 TAF 보고).

지도상에서 검색 가능한 기상관측소가 노란 점과 빨간 점으로 표시되어 있습니다.

기상관측소 명을 보려면 표시 위로 마우스를 이동하세요.

날씨 관측과 예보를 보려면 클릭하세요.

지도 변경 : 확대하려면 엑스 표시가 있는 녹색 버튼, 축소하려면 빼기 표시가 있는 녹색 버튼, 다음 페이지의 지도를 보려면 녹색 화살표를 클릭하세요.


METAR-TAF: